createdAt,value
2022-08-02T00:00:35.202Z,5.50
2022-08-02T00:03:03.178Z,4.80
2022-08-02T00:05:31.111Z,4.72
2022-08-02T00:07:59.080Z,5.60
2022-08-02T00:10:28.438Z,5.10
2022-08-02T00:12:58.797Z,5.67
2022-08-02T00:15:26.926Z,4.70
2022-08-02T00:17:54.907Z,5.20
2022-08-02T00:20:22.806Z,6.85
2022-08-02T00:22:50.749Z,6.10
2022-08-02T00:25:18.628Z,4.68
2022-08-02T00:27:47.894Z,3.80
2022-08-02T00:30:15.773Z,5.80
2022-08-02T00:32:43.734Z,4.45
2022-08-02T00:35:11.699Z,5.13
2022-08-02T00:37:41.012Z,7.32
2022-08-02T00:40:10.466Z,3.95
2022-08-02T00:42:38.686Z,5.18
2022-08-02T00:45:09.359Z,3.65
2022-08-02T00:47:37.270Z,3.50
2022-08-02T00:50:06.214Z,5.45
2022-08-02T00:52:34.142Z,4.35
2022-08-02T00:55:02.057Z,4.28
2022-08-02T00:57:29.958Z,5.50
2022-08-02T00:59:57.874Z,3.65
2022-08-02T01:02:27.124Z,5.93
2022-08-02T01:04:55.030Z,2.92
2022-08-02T01:07:22.941Z,9.32
2022-08-02T01:09:50.880Z,5.40
2022-08-02T01:12:18.825Z,6.63
2022-08-02T01:14:49.401Z,4.30
2022-08-02T01:17:24.061Z,7.03
2022-08-02T01:20:00.979Z,4.13
2022-08-02T01:23:02.606Z,4.70
2022-08-02T01:25:54.482Z,3.93
2022-08-02T01:28:37.262Z,4.15
2022-08-02T01:31:13.791Z,5.05
2022-08-02T01:33:46.987Z,6.15
2022-08-02T01:36:16.720Z,5.40
2022-08-02T01:38:49.244Z,6.70
2022-08-02T01:41:20.721Z,6.28
2022-08-02T01:43:54.777Z,5.17
2022-08-02T01:46:24.081Z,5.28
2022-08-02T01:48:54.466Z,5.53
2022-08-02T01:51:43.961Z,8.43
2022-08-02T01:54:15.546Z,4.63
2022-08-02T01:56:44.912Z,4.37
2022-08-02T01:59:18.060Z,3.80
2022-08-02T02:01:49.135Z,4.10
2022-08-02T02:04:18.514Z,5.97
2022-08-02T02:06:47.525Z,5.97
2022-08-02T02:09:17.336Z,7.60
2022-08-02T02:12:09.478Z,5.78
2022-08-02T02:14:38.445Z,6.30
2022-08-02T02:17:07.674Z,4.82
2022-08-02T02:19:37.942Z,5.90
2022-08-02T02:22:06.482Z,3.90
2022-08-02T02:24:35.791Z,5.90
2022-08-02T02:27:06.548Z,4.25
2022-08-02T02:29:35.721Z,4.18
2022-08-02T02:32:07.289Z,6.20
2022-08-02T02:34:39.029Z,5.27
2022-08-02T02:37:13.282Z,5.23
2022-08-02T02:39:43.183Z,5.43
2022-08-02T02:42:15.422Z,4.07
2022-08-02T02:44:45.462Z,6.43
2022-08-02T02:47:17.878Z,3.83
2022-08-02T02:52:17.612Z,4.18
2022-08-02T02:54:50.025Z,4.40
2022-08-02T02:57:18.598Z,3.53
2022-08-02T02:59:49.236Z,7.80
2022-08-02T03:02:19.926Z,6.78
2022-08-02T03:04:57.474Z,3.92
2022-08-02T03:07:26.815Z,4.88
2022-08-02T03:09:55.301Z,4.03
2022-08-02T03:12:30.647Z,4.38
2022-08-02T03:14:59.888Z,5.85
2022-08-02T03:17:38.977Z,5.35
2022-08-02T03:20:10.777Z,5.45
2022-08-02T03:22:38.729Z,3.58
2022-08-02T03:25:07.896Z,4.82
2022-08-02T03:27:35.915Z,4.72
2022-08-02T03:30:05.641Z,4.80
2022-08-02T03:32:35.974Z,2.92
2022-08-02T03:35:05.764Z,4.13
2022-08-02T03:37:34.909Z,4.38
2022-08-02T03:40:03.778Z,5.47
2022-08-02T03:42:32.475Z,6.30
2022-08-02T03:45:04.948Z,3.45
2022-08-02T03:47:38.758Z,5.25
2022-08-02T03:50:08.571Z,5.90
2022-08-02T03:52:36.950Z,5.13
2022-08-02T03:55:05.507Z,4.30
2022-08-02T03:57:33.549Z,4.72
2022-08-02T04:00:01.488Z,5.50
2022-08-02T04:02:29.394Z,3.40
2022-08-02T04:04:58.662Z,5.55
2022-08-02T04:08:02.724Z,4.70
2022-08-02T04:10:14.474Z,4.95
2022-08-02T04:12:42.457Z,8.00
2022-08-02T04:15:13.702Z,4.57
2022-08-02T04:17:44.777Z,4.55
2022-08-02T04:20:20.249Z,4.63
2022-08-02T04:22:52.363Z,3.95
2022-08-02T04:25:34.290Z,4.30
2022-08-02T04:28:17.430Z,7.18
2022-08-02T04:30:46.994Z,4.20
2022-08-02T04:33:15.447Z,6.00
2022-08-02T04:35:45.214Z,6.55
2022-08-02T04:38:15.057Z,5.40
2022-08-02T04:40:51.652Z,3.70
2022-08-02T04:43:19.571Z,7.32
2022-08-02T04:45:49.436Z,4.57
2022-08-02T04:48:17.354Z,5.85
2022-08-02T04:50:47.929Z,4.28
2022-08-02T04:53:15.925Z,6.05
2022-08-02T04:55:44.176Z,9.13
2022-08-02T04:58:37.385Z,7.43
2022-08-02T05:01:00.073Z,6.45
2022-08-02T05:03:28.071Z,5.78
2022-08-02T05:05:57.285Z,7.18
2022-08-02T05:08:25.171Z,5.43
2022-08-02T05:10:53.186Z,7.53
2022-08-02T05:13:21.081Z,7.38
2022-08-02T05:15:50.339Z,6.22
2022-08-02T05:18:18.388Z,6.05
2022-08-02T05:20:46.305Z,8.57
2022-08-02T05:23:15.553Z,6.35
2022-08-02T05:25:43.533Z,7.93
2022-08-02T05:28:11.906Z,7.43
2022-08-02T05:30:40.121Z,9.45
2022-08-02T05:33:08.504Z,7.05
2022-08-02T05:35:36.378Z,6.97
2022-08-02T05:38:04.837Z,9.35
2022-08-02T05:40:40.776Z,9.50
2022-08-02T05:43:23.346Z,7.72
2022-08-02T05:45:53.438Z,7.63
2022-08-02T05:48:21.827Z,7.90
2022-08-02T05:50:52.925Z,13.10
2022-08-02T05:53:29.198Z,7.53
2022-08-02T05:56:08.831Z,9.25
2022-08-02T05:58:51.143Z,5.90
2022-08-02T06:01:37.035Z,9.00
2022-08-02T06:04:08.489Z,6.88
2022-08-02T06:06:38.058Z,11.65
2022-08-02T06:09:10.979Z,8.30
2022-08-02T06:12:10.912Z,9.00
2022-08-02T06:14:33.816Z,10.90
2022-08-02T06:17:04.614Z,12.32
2022-08-02T06:19:46.848Z,13.60
2022-08-02T06:22:32.542Z,14.48
2022-08-02T06:25:04.994Z,16.40
2022-08-02T06:27:34.992Z,20.25
2022-08-02T06:30:04.213Z,25.42
2022-08-02T06:32:33.688Z,31.25
2022-08-02T06:35:01.652Z,38.78
2022-08-02T06:37:37.601Z,36.67
2022-08-02T06:40:15.363Z,41.50
2022-08-02T06:42:51.635Z,40.83
2022-08-02T06:45:19.847Z,40.47
2022-08-02T06:47:47.785Z,42.83
2022-08-02T06:50:15.678Z,42.92
2022-08-02T06:52:43.626Z,41.53
2022-08-02T06:55:11.712Z,39.13
2022-08-02T06:57:39.682Z,32.25
2022-08-02T07:00:10.451Z,38.78
2022-08-02T07:02:39.728Z,37.40
2022-08-02T07:05:08.787Z,34.65
2022-08-02T07:07:36.986Z,31.83
2022-08-02T07:10:05.962Z,32.38
2022-08-02T07:12:35.540Z,28.33
2022-08-02T07:15:05.614Z,27.15
2022-08-02T07:17:35.401Z,39.45
2022-08-02T07:20:03.730Z,31.77
2022-08-02T07:22:31.855Z,32.10
2022-08-02T07:25:01.090Z,31.08
2022-08-02T07:27:30.113Z,26.75
2022-08-02T07:29:58.349Z,27.85
2022-08-02T07:32:27.767Z,29.67
2022-08-02T07:34:57.448Z,25.45
2022-08-02T07:37:53.194Z,25.33
2022-08-02T07:40:19.968Z,29.33
2022-08-02T07:42:52.190Z,25.38
2022-08-02T07:45:20.946Z,29.10
2022-08-02T07:47:49.331Z,28.33
2022-08-02T07:50:20.532Z,33.85
2022-08-02T07:52:48.677Z,28.67
2022-08-02T07:55:18.762Z,30.90
2022-08-02T07:57:47.573Z,33.22
2022-08-02T08:00:17.352Z,28.15
2022-08-02T08:02:46.016Z,25.88
2022-08-02T08:05:14.298Z,24.92
2022-08-02T08:07:43.587Z,27.23
2022-08-02T08:10:12.426Z,23.85
2022-08-02T08:12:40.364Z,21.88
2022-08-02T08:15:09.209Z,22.48
2022-08-02T08:17:38.589Z,25.73
2022-08-02T08:20:07.833Z,20.35
2022-08-02T08:22:35.772Z,24.75
2022-08-02T08:25:05.442Z,18.50
2022-08-02T08:27:35.044Z,20.48
2022-08-02T08:30:04.470Z,17.23
2022-08-02T08:32:32.507Z,19.73
2022-08-02T08:35:00.399Z,17.67
2022-08-02T08:37:28.363Z,17.15
2022-08-02T08:39:58.883Z,17.27
2022-08-02T08:42:29.217Z,20.08
2022-08-02T08:44:58.507Z,16.65
2022-08-02T08:47:34.910Z,18.55
2022-08-02T08:50:06.416Z,20.85
2022-08-02T08:52:37.601Z,17.33
2022-08-02T08:55:06.577Z,20.40
2022-08-02T08:57:38.433Z,14.73
2022-08-02T09:00:07.451Z,15.32
2022-08-02T09:02:35.711Z,16.20
2022-08-02T09:05:03.781Z,18.65
2022-08-02T09:07:31.810Z,14.02
2022-08-02T09:09:59.732Z,14.75
2022-08-02T09:12:27.626Z,11.68
2022-08-02T09:14:56.887Z,12.90
2022-08-02T09:17:24.794Z,11.20
2022-08-02T09:20:08.293Z,12.32
2022-08-02T09:22:36.197Z,11.52
2022-08-02T09:25:04.463Z,12.20
2022-08-02T09:27:37.782Z,14.18
2022-08-02T09:30:14.346Z,11.15
2022-08-02T09:32:47.796Z,12.02
2022-08-02T09:36:06.476Z,13.80
2022-08-02T09:38:19.970Z,9.80
2022-08-02T09:40:47.864Z,13.55
2022-08-02T09:43:16.379Z,13.55
2022-08-02T09:45:45.678Z,10.60
2022-08-02T09:48:14.189Z,10.82
2022-08-02T09:50:42.960Z,12.63
2022-08-02T09:53:14.013Z,11.32
2022-08-02T09:55:42.426Z,9.10
2022-08-02T09:58:20.949Z,9.63
2022-08-02T10:00:59.021Z,11.85
2022-08-02T10:03:35.381Z,12.07
2022-08-02T10:06:05.637Z,11.90
2022-08-02T10:08:34.185Z,11.70
2022-08-02T10:11:03.408Z,14.40
2022-08-02T10:13:33.620Z,12.98
2022-08-02T10:16:04.010Z,11.93
2022-08-02T10:18:40.857Z,13.15
2022-08-02T10:21:20.498Z,12.07
2022-08-02T10:23:50.954Z,8.40
2022-08-02T10:26:20.359Z,10.73
2022-08-02T10:28:49.644Z,11.68
2022-08-02T10:31:24.111Z,11.45
2022-08-02T10:33:53.576Z,10.48
2022-08-02T10:36:23.696Z,11.07
2022-08-02T10:38:52.001Z,10.98
2022-08-02T10:41:45.033Z,11.25
2022-08-02T10:44:27.263Z,9.93
2022-08-02T10:49:50.811Z,8.95
2022-08-02T10:52:19.182Z,10.52
2022-08-02T10:54:56.408Z,10.43
2022-08-02T10:57:26.454Z,8.77
2022-08-02T10:59:58.229Z,9.20
2022-08-02T11:02:45.026Z,9.18
2022-08-02T11:05:15.566Z,9.68
2022-08-02T11:07:47.281Z,8.02
2022-08-02T11:10:32.235Z,8.73
2022-08-02T11:13:02.662Z,8.50
2022-08-02T11:15:30.913Z,11.85
2022-08-02T11:18:00.360Z,8.07
2022-08-02T11:20:29.158Z,9.60
2022-08-02T11:23:17.181Z,7.18
2022-08-02T11:26:03.288Z,6.65
2022-08-02T11:28:32.213Z,10.38
2022-08-02T11:31:02.644Z,6.13
2022-08-02T11:33:36.075Z,5.40
2022-08-02T11:36:07.068Z,5.05
2022-08-02T11:38:35.598Z,5.53
2022-08-02T11:41:09.983Z,5.20
2022-08-02T11:43:39.480Z,4.47
2022-08-02T11:46:14.264Z,6.95
2022-08-02T11:48:43.929Z,6.30
2022-08-02T11:51:14.094Z,10.02
2022-08-02T11:53:47.107Z,3.53
2022-08-02T11:56:21.744Z,3.90
2022-08-02T11:59:03.719Z,5.68
2022-08-02T12:01:32.440Z,3.55
2022-08-02T12:04:18.286Z,5.53
2022-08-02T12:06:54.580Z,5.00
2022-08-02T12:09:24.302Z,4.97
2022-08-02T12:11:53.615Z,3.75
2022-08-02T12:14:21.961Z,5.03
2022-08-02T12:17:08.270Z,4.10
2022-08-02T12:19:36.846Z,5.35
2022-08-02T12:22:10.252Z,3.92
2022-08-02T12:24:39.251Z,4.47
2022-08-02T12:27:08.796Z,6.03
2022-08-02T12:29:55.788Z,4.28
2022-08-02T12:32:26.219Z,4.70
2022-08-02T12:35:04.323Z,4.85
2022-08-02T12:37:32.618Z,4.45
2022-08-02T12:40:18.251Z,3.80
2022-08-02T12:42:51.938Z,6.63
2022-08-02T12:45:20.115Z,6.03
2022-08-02T12:47:49.910Z,4.63
2022-08-02T12:50:20.875Z,4.47
2022-08-02T12:52:49.104Z,4.30
2022-08-02T12:55:19.308Z,4.03
2022-08-02T12:57:56.954Z,5.13
2022-08-02T13:00:26.715Z,5.13
2022-08-02T13:02:54.958Z,7.65
2022-08-02T13:05:23.059Z,6.97
2022-08-02T13:07:51.730Z,6.07
2022-08-02T13:10:20.212Z,5.68
2022-08-02T13:12:48.479Z,8.27
2022-08-02T13:15:50.310Z,6.75
2022-08-02T13:18:06.463Z,9.98
2022-08-02T13:20:34.425Z,6.25
2022-08-02T13:23:04.209Z,6.90
2022-08-02T13:25:32.290Z,6.57
2022-08-02T13:28:00.611Z,7.55
2022-08-02T13:30:30.831Z,9.07
2022-08-02T13:33:01.085Z,7.80
2022-08-02T13:35:30.175Z,6.93
2022-08-02T13:37:58.106Z,5.97
2022-08-02T13:40:26.697Z,7.82
2022-08-02T13:42:54.634Z,7.97
2022-08-02T13:45:22.835Z,5.18
2022-08-02T13:48:03.505Z,7.43
2022-08-02T13:50:33.959Z,7.50
2022-08-02T13:53:01.857Z,7.78
2022-08-02T13:55:30.279Z,9.00
2022-08-02T13:57:58.251Z,7.25
2022-08-02T14:00:35.089Z,10.20
2022-08-02T14:03:06.816Z,11.02
2022-08-02T14:05:39.321Z,12.10
2022-08-02T14:08:17.123Z,9.17
2022-08-02T14:10:46.090Z,8.13
2022-08-02T14:13:14.146Z,10.65
2022-08-02T14:15:42.959Z,8.95
2022-08-02T14:18:12.346Z,7.95
2022-08-02T14:20:40.244Z,10.23
2022-08-02T14:23:08.154Z,8.60
2022-08-02T14:25:36.136Z,6.93
2022-08-02T14:28:04.452Z,7.78
2022-08-02T14:30:32.420Z,9.20
2022-08-02T14:33:00.324Z,7.78
2022-08-02T14:35:29.626Z,8.18
2022-08-02T14:37:57.704Z,9.43
2022-08-02T14:40:27.846Z,9.85
2022-08-02T14:42:58.862Z,8.57
2022-08-02T14:45:36.596Z,6.78
2022-08-02T14:48:10.335Z,6.78
2022-08-02T14:50:39.612Z,9.77
2022-08-02T14:53:12.212Z,7.35
2022-08-02T14:55:41.436Z,7.00
2022-08-02T14:58:09.429Z,9.35
2022-08-02T15:00:40.856Z,7.22
2022-08-02T15:03:09.639Z,9.63
2022-08-02T15:05:39.030Z,6.60
2022-08-02T15:08:07.904Z,6.70
2022-08-02T15:10:35.865Z,7.00
2022-08-02T15:13:03.771Z,7.93
2022-08-02T15:15:31.703Z,5.55
2022-08-02T15:18:00.083Z,7.80
2022-08-02T15:20:28.425Z,6.75
2022-08-02T15:22:58.111Z,6.65
2022-08-02T15:25:26.891Z,8.52
2022-08-02T15:27:54.776Z,5.30
2022-08-02T15:30:22.953Z,7.25
2022-08-02T15:32:52.957Z,6.78
2022-08-02T15:35:21.793Z,6.63
2022-08-02T15:37:49.926Z,6.70
2022-08-02T15:40:19.176Z,6.80
2022-08-02T15:42:47.085Z,6.82
2022-08-02T15:45:15.867Z,10.45
2022-08-02T15:47:50.281Z,8.23
2022-08-02T15:50:18.643Z,8.32
2022-08-02T15:52:46.590Z,7.82
2022-08-02T15:55:14.682Z,10.60
2022-08-02T15:57:43.933Z,6.82
2022-08-02T16:00:14.103Z,7.15
2022-08-02T16:02:47.062Z,7.78
2022-08-02T16:05:17.717Z,7.82
2022-08-02T16:07:46.137Z,8.30
2022-08-02T16:10:14.218Z,9.52
2022-08-02T16:12:43.757Z,11.13
2022-08-02T16:15:12.616Z,12.32
2022-08-02T16:17:52.019Z,8.23
2022-08-02T16:20:22.756Z,7.82
2022-08-02T16:22:50.609Z,9.25
2022-08-02T16:25:18.677Z,7.70
2022-08-02T16:28:06.232Z,8.95
2022-08-02T16:30:36.027Z,12.88
2022-08-02T16:33:04.245Z,10.02
2022-08-02T16:35:32.145Z,11.55
2022-08-02T16:38:00.021Z,6.50
2022-08-02T16:40:27.946Z,9.25
2022-08-02T16:42:57.476Z,8.70
2022-08-02T16:45:25.347Z,5.65
2022-08-02T16:47:54.943Z,8.48
2022-08-02T16:50:28.105Z,5.80
2022-08-02T16:52:57.781Z,5.68
2022-08-02T16:55:26.317Z,7.00
2022-08-02T16:58:00.473Z,12.00
2022-08-02T17:00:29.558Z,7.72
2022-08-02T17:02:59.645Z,6.95
2022-08-02T17:05:56.565Z,4.97
2022-08-02T17:08:31.776Z,9.68
2022-08-02T17:11:03.716Z,5.97
2022-08-02T17:16:25.920Z,4.68
2022-08-02T17:18:54.665Z,4.45
2022-08-02T17:21:22.769Z,6.03
2022-08-02T17:24:07.635Z,4.10
2022-08-02T17:26:39.112Z,6.32
2022-08-02T17:29:16.503Z,3.40
2022-08-02T17:32:04.769Z,3.47
2022-08-02T17:34:35.465Z,5.68
2022-08-02T17:37:05.880Z,5.18
2022-08-02T17:39:44.167Z,5.63
2022-08-02T17:42:23.233Z,6.38
2022-08-02T17:44:54.553Z,5.93
2022-08-02T17:47:22.808Z,8.48
2022-08-02T17:49:59.709Z,7.25
2022-08-02T17:52:52.539Z,6.15
2022-08-02T17:55:17.330Z,5.30
2022-08-02T17:57:57.992Z,8.27
2022-08-02T18:00:33.890Z,8.13
2022-08-02T18:03:05.509Z,8.68
2022-08-02T18:05:40.148Z,4.38
2022-08-02T18:08:13.958Z,5.95
2022-08-02T18:10:42.181Z,4.82
2022-08-02T18:13:12.179Z,4.72
2022-08-02T18:15:41.447Z,6.85
2022-08-02T18:18:13.484Z,6.65
2022-08-02T18:20:42.629Z,8.07
2022-08-02T18:23:13.703Z,5.68
2022-08-02T18:25:45.754Z,6.90
2022-08-02T18:28:14.759Z,4.07
2022-08-02T18:30:45.485Z,4.10
2022-08-02T18:33:58.884Z,5.60
2022-08-02T18:36:01.321Z,6.45
2022-08-02T18:38:30.995Z,5.90
2022-08-02T18:41:02.615Z,6.20
2022-08-02T18:46:15.456Z,4.78
2022-08-02T18:48:46.485Z,4.97
2022-08-02T18:51:15.775Z,2.00
2022-08-02T18:53:44.295Z,5.55
2022-08-02T18:56:19.793Z,2.97
2022-08-02T18:58:52.531Z,4.63
2022-08-02T19:01:31.974Z,3.70
2022-08-02T19:04:01.952Z,5.57
2022-08-02T19:06:30.314Z,3.25
2022-08-02T19:08:59.706Z,2.67
2022-08-02T19:11:34.994Z,6.03
2022-08-02T19:14:03.573Z,3.25
2022-08-02T19:16:37.550Z,4.65
2022-08-02T19:19:07.081Z,5.18
2022-08-02T19:22:16.176Z,4.40
2022-08-02T19:24:22.960Z,5.10
2022-08-02T19:26:52.511Z,4.38
2022-08-02T19:29:42.028Z,4.60
2022-08-02T19:32:40.357Z,3.85
2022-08-02T19:35:00.216Z,6.00
2022-08-02T19:37:36.942Z,6.03
2022-08-02T19:40:07.884Z,6.05
2022-08-02T19:44:23.242Z,4.90
2022-08-02T19:48:15.710Z,6.60
2022-08-02T19:50:49.144Z,4.65
2022-08-02T19:53:17.983Z,8.13
2022-08-02T19:56:01.239Z,5.20
2022-08-02T19:58:36.664Z,3.42
2022-08-02T20:01:05.347Z,5.45
2022-08-02T20:03:51.246Z,8.88
2022-08-02T20:06:29.376Z,7.82
2022-08-02T20:08:58.895Z,6.22
2022-08-02T20:11:27.405Z,6.50
2022-08-02T20:13:55.317Z,3.70
2022-08-02T20:16:27.726Z,5.53
2022-08-02T20:18:57.728Z,3.95
2022-08-02T20:21:36.103Z,9.90
2022-08-02T20:24:07.156Z,5.35
2022-08-02T20:26:35.689Z,7.25
2022-08-02T20:29:06.066Z,9.57
2022-08-02T20:31:36.240Z,5.18
2022-08-02T20:34:07.280Z,9.90
2022-08-02T20:36:35.361Z,6.75
2022-08-02T20:39:03.360Z,5.57
2022-08-02T20:41:37.307Z,8.52
2022-08-02T20:44:15.728Z,11.27
2022-08-02T20:46:59.146Z,10.50
2022-08-02T20:49:41.126Z,7.25
2022-08-02T20:52:23.820Z,9.65
2022-08-02T20:54:53.033Z,9.32
2022-08-02T20:57:48.810Z,8.60
2022-08-02T21:00:10.647Z,10.50
2022-08-02T21:02:38.573Z,7.22
2022-08-02T21:05:17.517Z,7.97
2022-08-02T21:07:47.569Z,8.07
2022-08-02T21:10:16.196Z,8.52
2022-08-02T21:12:45.351Z,13.52
2022-08-02T21:15:13.663Z,11.15
2022-08-02T21:17:46.657Z,12.70
2022-08-02T21:20:27.158Z,8.07
2022-08-02T21:22:55.621Z,8.82
2022-08-02T21:25:23.993Z,12.43
2022-08-02T21:28:13.580Z,9.38
2022-08-02T21:30:46.049Z,12.35
2022-08-02T21:33:18.063Z,11.98
2022-08-02T21:35:53.193Z,12.13
2022-08-02T21:38:35.805Z,9.23
2022-08-02T21:41:06.302Z,9.40
2022-08-02T21:43:40.367Z,8.95
2022-08-02T21:46:14.634Z,12.30
2022-08-02T21:48:42.763Z,11.75
2022-08-02T21:51:15.748Z,8.82
2022-08-02T21:53:44.272Z,11.90
2022-08-02T21:56:32.145Z,8.55
2022-08-02T21:59:00.589Z,9.60
2022-08-02T22:01:53.076Z,8.65
2022-08-02T22:04:21.760Z,9.68
2022-08-02T22:06:53.586Z,7.70
2022-08-02T22:09:44.013Z,10.07
2022-08-02T22:12:16.461Z,10.80
2022-08-02T22:14:53.872Z,12.38
2022-08-02T22:17:30.406Z,7.82
2022-08-02T22:20:13.585Z,11.10
2022-08-02T22:22:43.110Z,13.60
2022-08-02T22:25:27.097Z,10.20
2022-08-02T22:28:11.762Z,10.68
2022-08-02T22:30:52.494Z,8.10
2022-08-02T22:33:46.634Z,10.30
2022-08-02T22:36:16.079Z,10.30
2022-08-02T22:38:48.179Z,7.38
2022-08-02T22:43:44.805Z,14.52
2022-08-02T22:46:15.659Z,15.27
2022-08-02T22:48:46.674Z,11.15
2022-08-02T22:51:15.148Z,12.85
2022-08-02T22:53:43.763Z,8.00
2022-08-02T22:56:14.080Z,11.95
2022-08-02T22:58:53.028Z,7.07
2022-08-02T23:01:36.181Z,10.70
2022-08-02T23:04:08.882Z,12.02
2022-08-02T23:06:36.774Z,13.02
2022-08-02T23:09:04.774Z,7.53
2022-08-02T23:11:34.119Z,14.18
2022-08-02T23:14:02.021Z,10.50
2022-08-02T23:16:47.278Z,11.43
2022-08-02T23:19:32.944Z,10.27
2022-08-02T23:22:02.301Z,10.05
2022-08-02T23:24:33.083Z,12.23
2022-08-02T23:27:02.810Z,12.45
2022-08-02T23:29:30.817Z,17.48
2022-08-02T23:31:59.068Z,9.40
2022-08-02T23:34:27.060Z,10.30
2022-08-02T23:36:55.050Z,6.95
2022-08-02T23:39:22.953Z,10.95
2022-08-02T23:41:55.043Z,11.55
2022-08-02T23:44:24.937Z,11.52
2022-08-02T23:46:54.294Z,14.40
2022-08-02T23:49:23.163Z,10.70
2022-08-02T23:51:51.873Z,14.70
2022-08-02T23:54:20.213Z,12.07
2022-08-02T23:56:48.182Z,10.32
2022-08-02T23:59:16.155Z,11.80
